Time;durP1;ratioP1;P1;durP2;ratioP2;P2;SDS_P1;SDS_P2;PMS_P1;PMS_P2;Temp;Humidity;BMP_temperature;BMP_pressure;BME280_temperature;BME280_humidity;BME280_pressure;Samples;Min_cycle;Max_cycle;Signal;HPM_P1;HPM_P2
2022/08/14 00:00:15;;;;;;;12.73;11.23;;;22.40;99.90;;;;;;5054409;28;20464;-67
2022/08/14 00:02:42;;;;;;;15.52;10.57;;;22.40;99.90;;;;;;5054445;28;20078;-67
2022/08/14 00:05:09;;;;;;;15.90;11.65;;;22.40;99.90;;;;;;5054530;28;20036;-67
2022/08/14 00:07:36;;;;;;;19.42;12.23;;;22.40;99.90;;;;;;5054485;28;20462;-67
2022/08/14 00:10:04;;;;;;;15.23;11.90;;;22.40;99.90;;;;;;5054420;28;20021;-67
2022/08/14 00:12:33;;;;;;;14.48;11.10;;;22.40;99.90;;;;;;5053830;28;20021;-67
2022/08/14 00:14:58;;;;;;;13.90;11.57;;;22.40;99.90;;;;;;5054247;28;20166;-68
2022/08/14 00:17:25;;;;;;;14.50;11.30;;;22.30;99.90;;;;;;5054424;28;20108;-69
2022/08/14 00:19:51;;;;;;;12.65;11.35;;;22.20;99.90;;;;;;5054087;28;20114;-69
2022/08/14 00:22:17;;;;;;;16.02;12.82;;;22.30;99.90;;;;;;5054215;28;20052;-69
2022/08/14 00:24:44;;;;;;;14.15;11.55;;;22.30;99.90;;;;;;5054067;28;20032;-69
2022/08/14 00:27:10;;;;;;;13.23;10.45;;;22.10;99.90;;;;;;5053860;28;20481;-69
2022/08/14 00:29:36;;;;;;;11.05;9.95;;;22.20;99.90;;;;;;5054003;28;20478;-69
2022/08/14 00:32:02;;;;;;;14.15;12.30;;;22.10;99.90;;;;;;5053897;28;20025;-69
2022/08/14 00:34:28;;;;;;;17.05;13.70;;;22.10;99.90;;;;;;5053892;28;20113;-69
2022/08/14 00:36:53;;;;;;;15.85;11.60;;;22.00;99.90;;;;;;5053766;28;20462;-70
2022/08/14 00:39:19;;;;;;;15.40;11.48;;;22.10;99.90;;;;;;5053629;28;20036;-69
2022/08/14 00:41:48;;;;;;;16.60;11.50;;;22.10;99.90;;;;;;5053459;28;20021;-69
2022/08/14 00:44:15;;;;;;;13.48;11.68;;;22.10;99.90;;;;;;5053556;28;20048;-70
2022/08/14 00:46:40;;;;;;;16.27;13.02;;;22.10;99.90;;;;;;5053823;28;20029;-69
2022/08/14 00:49:07;;;;;;;16.67;13.45;;;22.20;99.90;;;;;;5053669;28;20111;-69
2022/08/14 00:51:33;;;;;;;16.67;13.15;;;22.20;99.90;;;;;;5053485;28;20017;-70
2022/08/14 00:54:01;;;;;;;19.35;13.80;;;22.20;99.90;;;;;;5053599;28;20025;-70
2022/08/14 00:56:27;;;;;;;15.45;13.80;;;22.20;99.90;;;;;;5053114;28;20077;-70
2022/08/14 00:58:54;;;;;;;16.98;12.63;;;22.10;99.90;;;;;;5053335;28;20029;-67
2022/08/14 01:01:20;;;;;;;17.88;13.88;;;22.00;99.90;;;;;;5053336;28;20059;-67
2022/08/14 01:03:46;;;;;;;16.55;13.50;;;22.00;99.90;;;;;;5053317;28;20025;-67
2022/08/14 01:06:15;;;;;;;15.13;13.52;;;22.00;99.90;;;;;;5053292;28;20028;-67
2022/08/14 01:08:42;;;;;;;16.90;12.75;;;22.00;99.90;;;;;;5053329;28;20111;-68
2022/08/14 01:11:14;;;;;;;15.02;10.57;;;21.90;99.90;;;;;;5052839;28;20032;-68
2022/08/14 01:13:41;;;;;;;18.33;12.95;;;21.90;99.90;;;;;;5053055;28;20122;-69
2022/08/14 01:16:12;;;;;;;18.77;13.32;;;21.90;99.90;;;;;;5053170;28;20021;-69
2022/08/14 01:21:38;;;;;;;14.48;11.32;;;22.00;99.90;;;;;;5053262;28;20043;-69
2022/08/14 01:24:06;;;;;;;17.98;12.77;;;21.90;99.90;;;;;;5053110;28;20021;-69
2022/08/14 01:26:33;;;;;;;20.15;14.13;;;21.80;99.90;;;;;;5052705;28;20020;-69
2022/08/14 01:28:59;;;;;;;18.48;13.70;;;21.80;99.90;;;;;;5052928;28;20112;-67
2022/08/14 01:31:28;;;;;;;16.13;12.35;;;21.70;99.90;;;;;;5052866;28;20100;-67
2022/08/14 01:33:56;;;;;;;16.83;12.65;;;21.70;99.90;;;;;;5051622;28;20036;-67
2022/08/14 01:36:23;;;;;;;17.67;13.07;;;21.80;99.90;;;;;;5052782;28;20025;-67
2022/08/14 01:38:52;;;;;;;14.50;12.13;;;21.80;99.90;;;;;;5052230;28;20029;-66
2022/08/14 01:41:20;;;;;;;17.35;13.25;;;21.80;99.90;;;;;;5052646;28;20037;-67
2022/08/14 01:43:59;;;;;;;13.88;12.25;;;21.80;99.90;;;;;;5052453;28;20076;-67
2022/08/14 01:46:28;;;;;;;14.38;12.38;;;21.80;99.90;;;;;;5052669;28;20048;-66
2022/08/14 01:48:56;;;;;;;17.20;13.73;;;21.80;99.90;;;;;;5052488;28;20478;-67
2022/08/14 01:51:23;;;;;;;14.88;12.15;;;21.80;99.90;;;;;;5052862;28;20381;-66
2022/08/14 01:53:52;;;;;;;20.10;14.65;;;21.90;99.90;;;;;;5052220;28;20033;-66
2022/08/14 01:56:19;;;;;;;17.42;13.15;;;21.90;99.90;;;;;;5052558;28;20029;-66
2022/08/14 01:58:48;;;;;;;18.50;12.13;;;21.80;99.90;;;;;;5052808;28;20021;-67
2022/08/14 02:01:18;;;;;;;18.42;13.88;;;21.90;99.90;;;;;;5052384;28;20039;-66
2022/08/14 02:03:45;;;;;;;17.55;12.95;;;21.80;99.90;;;;;;5052501;28;20032;-66
2022/08/14 02:06:12;;;;;;;18.08;13.02;;;21.80;99.90;;;;;;5056816;28;20113;-67
2022/08/14 02:08:41;;;;;;;20.40;13.77;;;21.80;99.90;;;;;;5058894;28;20025;-66
2022/08/14 02:11:21;;;;;;;19.48;14.48;;;21.80;99.90;;;;;;5059054;28;20451;-66
2022/08/14 02:13:55;;;;;;;17.23;13.35;;;21.80;99.90;;;;;;5059019;28;20643;-66
2022/08/14 02:16:28;;;;;;;21.05;13.52;;;21.80;99.90;;;;;;5059087;28;20029;-66
2022/08/14 02:18:56;;;;;;;17.73;13.18;;;21.80;99.90;;;;;;5058960;28;20033;-67
2022/08/14 02:21:22;;;;;;;20.70;13.00;;;21.90;99.90;;;;;;5058861;28;20025;-67
2022/08/14 02:23:50;;;;;;;14.23;12.32;;;21.80;99.90;;;;;;5058630;28;20165;-67
2022/08/14 02:26:25;;;;;;;17.67;13.57;;;21.80;99.90;;;;;;5058915;28;20104;-67
2022/08/14 02:28:54;;;;;;;16.70;13.82;;;21.80;99.90;;;;;;5058908;28;20397;-66
2022/08/14 02:31:20;;;;;;;16.92;13.77;;;21.80;99.90;;;;;;5058943;28;20029;-67
2022/08/14 02:33:46;;;;;;;17.00;12.52;;;21.80;99.90;;;;;;5058903;28;20043;-67
2022/08/14 02:36:14;;;;;;;16.75;13.57;;;21.80;99.90;;;;;;5058949;28;20033;-67
2022/08/14 02:38:40;;;;;;;18.85;13.85;;;21.80;99.90;;;;;;5058322;28;20025;-70
2022/08/14 02:41:11;;;;;;;15.90;13.60;;;21.80;99.90;;;;;;5058765;28;20125;-67
2022/08/14 02:43:38;;;;;;;21.10;15.45;;;21.80;99.90;;;;;;5058632;28;20053;-67
2022/08/14 02:46:08;;;;;;;20.02;15.57;;;21.70;99.90;;;;;;5059026;28;20048;-67
2022/08/14 02:48:35;;;;;;;20.20;15.90;;;21.80;99.90;;;;;;5058877;28;20100;-67
2022/08/14 02:51:06;;;;;;;21.80;15.93;;;21.70;99.90;;;;;;5058719;28;20071;-66
2022/08/14 02:53:33;;;;;;;19.80;15.80;;;21.70;99.90;;;;;;5058435;28;20060;-67
2022/08/14 02:56:01;;;;;;;22.08;14.13;;;21.70;99.90;;;;;;5058921;28;20025;-66
2022/08/14 02:58:28;;;;;;;21.15;15.98;;;21.70;99.90;;;;;;5058659;28;20029;-66
2022/08/14 03:00:54;;;;;;;19.90;14.82;;;21.70;99.90;;;;;;5058520;28;20037;-66
2022/08/14 03:03:22;;;;;;;19.85;15.32;;;21.70;99.90;;;;;;5057460;28;20021;-66
2022/08/14 03:05:50;;;;;;;19.83;15.68;;;21.70;99.90;;;;;;5058342;28;20039;-67
2022/08/14 03:08:17;;;;;;;21.95;16.25;;;21.70;99.90;;;;;;5058707;28;20032;-66
2022/08/14 03:10:43;;;;;;;20.80;15.68;;;21.60;99.90;;;;;;5058567;28;20028;-66
2022/08/14 03:13:09;;;;;;;20.42;13.80;;;21.60;99.90;;;;;;5058428;28;20112;-66
2022/08/14 03:15:52;;;;;;;18.45;13.57;;;21.60;99.90;;;;;;5058538;28;20048;-66
2022/08/14 03:18:20;;;;;;;18.58;14.68;;;21.60;99.90;;;;;;5054414;28;20086;-67
2022/08/14 03:20:46;;;;;;;20.45;14.32;;;21.60;99.90;;;;;;5054938;28;20093;-66
2022/08/14 03:23:13;;;;;;;16.08;14.30;;;21.60;99.90;;;;;;5055447;28;20446;-66
2022/08/14 03:25:39;;;;;;;14.82;13.20;;;21.60;99.90;;;;;;5055436;28;20029;-66
2022/08/14 03:28:07;;;;;;;19.27;13.65;;;21.50;99.90;;;;;;5055273;28;20013;-66
2022/08/14 03:30:34;;;;;;;15.18;13.60;;;21.50;99.90;;;;;;5055227;28;20052;-67
2022/08/14 03:33:00;;;;;;;19.05;14.65;;;21.50;99.90;;;;;;5055022;28;20049;-66
2022/08/14 03:35:27;;;;;;;18.17;14.95;;;21.40;99.90;;;;;;5054703;28;20481;-67
2022/08/14 03:37:52;;;;;;;15.48;13.55;;;21.50;99.90;;;;;;5054776;28;20079;-66
2022/08/14 03:40:21;;;;;;;15.00;11.57;;;21.50;99.90;;;;;;5054819;28;20033;-66
2022/08/14 03:42:47;;;;;;;16.92;13.90;;;21.50;99.90;;;;;;5054888;28;20025;-67
2022/08/14 03:45:15;;;;;;;16.63;13.82;;;21.50;99.90;;;;;;5054864;28;20095;-67
2022/08/14 03:47:41;;;;;;;18.23;14.50;;;21.50;99.90;;;;;;5054991;28;20021;-67
2022/08/14 03:50:09;;;;;;;17.45;14.00;;;21.40;99.90;;;;;;5054416;28;20078;-67
2022/08/14 03:52:36;;;;;;;19.80;14.65;;;21.50;99.90;;;;;;5054902;28;20025;-67
2022/08/14 03:55:05;;;;;;;24.10;14.45;;;21.40;99.90;;;;;;5054741;28;20124;-68
2022/08/14 03:57:34;;;;;;;21.20;14.50;;;21.40;99.90;;;;;;5054668;28;20017;-67
2022/08/14 04:00:07;;;;;;;14.98;13.23;;;21.30;99.90;;;;;;5054660;28;20407;-67
2022/08/14 04:02:33;;;;;;;21.52;13.60;;;21.30;99.90;;;;;;5054484;28;20095;-67
2022/08/14 04:05:00;;;;;;;18.98;13.32;;;21.30;99.90;;;;;;5054283;28;20509;-67
2022/08/14 04:07:26;;;;;;;22.02;14.10;;;21.30;99.90;;;;;;5054491;28;20103;-67
2022/08/14 04:09:52;;;;;;;16.73;11.32;;;21.20;99.90;;;;;;5054374;28;20031;-67
2022/08/14 04:12:18;;;;;;;15.68;12.40;;;21.10;99.90;;;;;;5054613;28;20033;-67
2022/08/14 04:14:44;;;;;;;18.50;12.45;;;21.20;99.90;;;;;;5054345;28;20025;-68
2022/08/14 04:17:11;;;;;;;16.88;12.73;;;21.10;99.90;;;;;;5054704;28;20060;-68
2022/08/14 04:19:38;;;;;;;20.35;12.52;;;21.10;99.90;;;;;;5053985;28;20033;-68
2022/08/14 04:22:05;;;;;;;20.23;14.43;;;21.10;99.90;;;;;;5054407;28;20021;-69
2022/08/14 04:24:31;;;;;;;18.70;13.57;;;21.10;99.90;;;;;;5054466;28;20025;-68
2022/08/14 04:26:57;;;;;;;20.20;13.98;;;21.10;99.90;;;;;;5054036;28;20029;-68
2022/08/14 04:29:23;;;;;;;18.58;12.38;;;21.00;99.90;;;;;;5053839;28;20493;-69
2022/08/14 04:31:49;;;;;;;17.08;12.10;;;20.90;99.90;;;;;;5054239;28;20028;-69
2022/08/14 04:34:16;;;;;;;18.05;12.77;;;20.90;99.90;;;;;;5053616;28;20463;-70
2022/08/14 04:44:54;;;;;;;15.02;12.23;;;20.90;99.90;;;;;;5053681;28;20052;-69
2022/08/14 04:50:04;;;;;;;17.98;14.02;;;21.00;99.90;;;;;;5053908;28;20055;-69
2022/08/14 04:52:30;;;;;;;18.52;11.85;;;20.90;99.90;;;;;;5053515;28;20075;-69
2022/08/14 04:54:57;;;;;;;20.05;13.55;;;20.90;99.90;;;;;;5053555;28;20429;-69
2022/08/14 04:57:23;;;;;;;19.75;14.80;;;20.90;99.90;;;;;;5053488;28;20494;-69
2022/08/14 04:59:51;;;;;;;14.75;11.90;;;20.90;99.90;;;;;;5053394;28;20047;-69
2022/08/14 05:02:17;;;;;;;17.35;12.98;;;20.90;99.90;;;;;;5053021;28;20075;-69
2022/08/14 05:04:43;;;;;;;21.70;12.50;;;20.90;99.90;;;;;;5053537;28;20525;-70
2022/08/14 05:07:08;;;;;;;21.52;14.13;;;20.90;99.90;;;;;;5053458;28;20112;-70
2022/08/14 05:09:34;;;;;;;19.92;12.70;;;20.90;99.90;;;;;;5053258;28;20367;-69
2022/08/14 05:12:00;;;;;;;16.92;12.77;;;20.90;99.90;;;;;;5053282;28;20147;-69
2022/08/14 05:14:26;;;;;;;17.20;13.77;;;20.90;99.90;;;;;;5053255;28;20021;-66
2022/08/14 05:16:52;;;;;;;23.80;14.82;;;20.90;99.90;;;;;;5052840;28;20028;-66
2022/08/14 05:19:18;;;;;;;16.88;13.45;;;20.90;99.90;;;;;;5053132;28;20398;-66
2022/08/14 05:21:44;;;;;;;19.10;13.57;;;20.80;99.90;;;;;;5053106;28;20087;-67
2022/08/14 05:24:11;;;;;;;13.25;11.00;;;20.70;99.90;;;;;;5053102;28;20070;-66
2022/08/14 05:26:40;;;;;;;21.52;14.45;;;20.70;99.90;;;;;;5052930;28;20074;-67
2022/08/14 05:29:09;;;;;;;17.52;12.80;;;20.80;99.90;;;;;;5052971;28;20496;-66
2022/08/14 05:31:38;;;;;;;17.83;14.88;;;20.80;99.90;;;;;;5052557;28;20092;-67
2022/08/14 05:34:06;;;;;;;22.52;15.60;;;20.90;99.90;;;;;;5052881;28;20029;-67
2022/08/14 05:36:32;;;;;;;23.83;15.05;;;20.80;99.90;;;;;;5052828;28;20017;-67
2022/08/14 05:38:58;;;;;;;19.30;13.88;;;20.90;99.90;;;;;;5052551;28;20112;-66
2022/08/14 05:41:24;;;;;;;18.45;13.15;;;20.80;99.90;;;;;;5052106;28;20451;-67
2022/08/14 05:43:49;;;;;;;20.17;14.70;;;20.90;99.90;;;;;;5052577;28;20049;-67
2022/08/14 05:46:17;;;;;;;16.80;12.45;;;20.90;99.90;;;;;;5052356;28;20492;-67
2022/08/14 05:48:54;;;;;;;18.30;14.15;;;20.90;99.90;;;;;;5052648;28;20445;-67
2022/08/14 05:51:22;;;;;;;13.60;12.20;;;20.90;99.90;;;;;;5052498;28;20025;-67
2022/08/14 05:53:47;;;;;;;19.55;13.50;;;20.90;99.90;;;;;;5052620;28;20032;-67
2022/08/14 05:56:13;;;;;;;17.02;10.88;;;21.00;99.90;;;;;;5052604;28;20025;-67
2022/08/14 05:58:39;;;;;;;19.52;12.85;;;21.00;99.90;;;;;;5052563;28;20028;-68
2022/08/14 06:01:05;;;;;;;17.60;12.30;;;20.90;99.90;;;;;;5052015;28;20037;-68
2022/08/14 06:03:31;;;;;;;16.65;11.82;;;20.90;99.90;;;;;;5052377;28;20047;-70
2022/08/14 06:05:57;;;;;;;15.32;11.55;;;21.00;99.90;;;;;;5052552;28;20478;-69
2022/08/14 06:08:31;;;;;;;19.52;14.55;;;21.00;99.90;;;;;;5052490;28;20100;-70
2022/08/14 06:11:02;;;;;;;18.40;13.73;;;21.00;99.90;;;;;;5052361;28;20033;-70
2022/08/14 06:13:29;;;;;;;16.25;12.63;;;21.00;99.90;;;;;;5052392;28;20057;-69
2022/08/14 06:15:54;;;;;;;19.50;12.52;;;21.00;99.90;;;;;;5052102;28;20020;-70
2022/08/14 06:18:20;;;;;;;19.98;12.38;;;21.00;99.90;;;;;;5052315;28;20029;-70
2022/08/14 06:20:46;;;;;;;15.55;12.48;;;21.00;99.90;;;;;;5052239;28;20053;-69
2022/08/14 06:23:12;;;;;;;21.83;13.18;;;21.10;99.90;;;;;;5052376;28;20059;-69
2022/08/14 06:25:37;;;;;;;18.05;13.50;;;21.10;99.90;;;;;;5051156;28;20017;-70
2022/08/14 06:28:04;;;;;;;17.65;11.63;;;21.20;99.90;;;;;;5052226;28;20053;-70
2022/08/14 06:30:32;;;;;;;22.15;12.27;;;21.20;99.90;;;;;;5051912;28;20265;-70
2022/08/14 06:32:58;;;;;;;16.88;13.07;;;21.30;99.90;;;;;;5052219;28;20029;-69
2022/08/14 06:35:23;;;;;;;16.08;13.00;;;21.30;99.90;;;;;;5052344;28;20380;-69
2022/08/14 06:37:55;;;;;;;18.08;13.32;;;21.30;99.90;;;;;;5052199;28;20029;-69
2022/08/14 06:40:30;;;;;;;17.42;13.50;;;21.30;99.90;;;;;;5050842;28;20513;-69
2022/08/14 06:43:02;;;;;;;20.77;12.02;;;21.30;99.90;;;;;;5052043;28;20490;-70
2022/08/14 06:45:29;;;;;;;18.48;12.57;;;21.30;99.90;;;;;;5051883;28;20033;-69
2022/08/14 06:47:55;;;;;;;16.90;11.75;;;21.40;99.90;;;;;;5052084;28;20025;-70
2022/08/14 06:50:22;;;;;;;15.13;11.15;;;21.30;99.90;;;;;;5052039;28;20032;-70
2022/08/14 06:52:48;;;;;;;19.60;12.13;;;21.40;99.90;;;;;;5055026;28;20056;-70
2022/08/14 06:55:17;;;;;;;17.80;13.13;;;21.30;99.90;;;;;;5056010;28;20094;-70
2022/08/14 06:57:45;;;;;;;17.48;12.93;;;21.30;99.90;;;;;;5055847;28;20036;-70
2022/08/14 07:00:19;;;;;;;19.52;14.00;;;21.30;99.90;;;;;;5055606;28;20036;-70
2022/08/14 07:05:49;;;;;;;20.95;14.07;;;21.30;99.90;;;;;;5055865;28;20116;-69
2022/08/14 07:08:17;;;;;;;16.35;14.15;;;21.30;99.90;;;;;;5055722;28;20104;-69
2022/08/14 07:10:45;;;;;;;21.25;14.70;;;21.20;99.90;;;;;;5055406;28;20032;-70
2022/08/14 07:13:12;;;;;;;19.42;13.95;;;21.20;99.90;;;;;;5055259;28;20488;-70
2022/08/14 07:15:39;;;;;;;20.48;15.05;;;21.20;99.90;;;;;;5055384;28;20037;-70
2022/08/14 07:18:05;;;;;;;17.08;14.00;;;21.20;99.90;;;;;;5055463;28;20029;-70
2022/08/14 07:20:31;;;;;;;15.63;12.43;;;21.20;99.90;;;;;;5055241;28;20108;-69
2022/08/14 07:22:59;;;;;;;14.00;11.88;;;21.20;99.90;;;;;;5055354;28;20104;-70
2022/08/14 07:25:25;;;;;;;21.67;14.38;;;21.20;99.90;;;;;;5055300;28;20029;-70
2022/08/14 07:27:52;;;;;;;17.65;12.82;;;21.20;99.90;;;;;;5054880;28;20102;-69
2022/08/14 07:30:18;;;;;;;15.65;14.00;;;21.30;99.90;;;;;;5055167;28;20044;-69
2022/08/14 07:32:43;;;;;;;20.30;14.27;;;21.30;99.90;;;;;;5055107;28;20021;-70
2022/08/14 07:35:09;;;;;;;18.92;14.55;;;21.30;99.90;;;;;;5055109;28;20386;-70
2022/08/14 07:37:35;;;;;;;19.75;14.95;;;21.30;99.90;;;;;;5055035;28;20030;-70
2022/08/14 07:40:03;;;;;;;18.10;14.55;;;21.30;99.90;;;;;;5054777;28;20033;-70
2022/08/14 07:42:31;;;;;;;21.23;15.43;;;21.30;99.90;;;;;;5054545;28;20082;-70
2022/08/14 07:44:57;;;;;;;18.95;16.98;;;21.30;99.90;;;;;;5054816;28;20045;-70
2022/08/14 07:47:23;;;;;;;23.25;17.45;;;21.30;99.90;;;;;;5054939;28;20025;-69
2022/08/14 07:50:06;;;;;;;17.73;14.25;;;21.30;99.90;;;;;;5054827;28;20040;-70
2022/08/14 07:52:32;;;;;;;18.35;13.10;;;21.30;99.90;;;;;;5054661;28;20391;-70
2022/08/14 07:55:00;;;;;;;18.48;13.93;;;21.30;99.90;;;;;;5054726;28;20033;-69
2022/08/14 07:57:26;;;;;;;16.00;12.90;;;21.40;99.90;;;;;;5054264;28;20494;-70
2022/08/14 07:59:52;;;;;;;17.38;12.25;;;21.40;99.90;;;;;;5054512;28;20040;-70
2022/08/14 08:02:19;;;;;;;19.90;13.35;;;21.50;99.90;;;;;;5054509;28;20033;-70
2022/08/14 08:04:48;;;;;;;18.73;13.43;;;21.50;99.90;;;;;;5053810;28;20063;-70
2022/08/14 08:07:13;;;;;;;16.52;13.45;;;21.50;99.90;;;;;;5054546;28;20043;-70
2022/08/14 08:09:48;;;;;;;18.65;12.68;;;21.50;99.90;;;;;;5054474;28;20025;-69
2022/08/14 08:12:16;;;;;;;14.00;11.18;;;21.60;99.90;;;;;;5054026;28;20037;-69
2022/08/14 08:14:42;;;;;;;14.35;11.50;;;21.60;99.90;;;;;;5054234;28;20542;-70
2022/08/14 08:17:09;;;;;;;13.85;9.77;;;21.80;99.90;;;;;;5054367;28;20095;-69
2022/08/14 08:19:37;;;;;;;16.90;11.95;;;21.80;99.90;;;;;;5054209;28;20137;-70
2022/08/14 08:22:03;;;;;;;15.50;12.90;;;21.90;99.90;;;;;;5054223;28;20060;-69
2022/08/14 08:24:29;;;;;;;16.95;12.10;;;22.00;99.90;;;;;;5054184;28;20052;-70
2022/08/14 08:26:55;;;;;;;16.30;12.27;;;22.00;99.90;;;;;;5053756;28;20061;-69
2022/08/14 08:29:23;;;;;;;19.42;12.45;;;22.20;99.90;;;;;;5054169;28;20025;-69
2022/08/14 08:31:51;;;;;;;15.85;11.40;;;22.20;99.90;;;;;;5053945;28;20029;-69
2022/08/14 08:34:17;;;;;;;15.77;11.27;;;22.30;99.90;;;;;;5054007;28;20040;-69
2022/08/14 08:36:43;;;;;;;15.40;10.38;;;22.30;99.90;;;;;;5054021;28;20021;-70
2022/08/14 08:39:10;;;;;;;15.00;10.77;;;22.40;99.90;;;;;;5053677;28;20046;-69
2022/08/14 08:41:45;;;;;;;15.50;10.63;;;22.50;99.90;;;;;;5053476;28;20039;-69
2022/08/14 08:44:12;;;;;;;16.55;9.93;;;22.50;99.90;;;;;;5053639;28;20081;-69
2022/08/14 08:46:38;;;;;;;14.23;9.82;;;22.60;99.90;;;;;;5053675;28;20025;-69
2022/08/14 08:49:05;;;;;;;14.38;9.35;;;22.60;99.90;;;;;;5053679;28;20102;-69
2022/08/14 08:51:34;;;;;;;14.40;9.35;;;22.70;99.90;;;;;;5053487;28;20367;-69
2022/08/14 08:54:02;;;;;;;16.38;9.50;;;22.80;99.90;;;;;;5053364;28;20035;-69
2022/08/14 08:56:47;;;;;;;13.65;8.40;;;22.90;99.90;;;;;;5053495;28;20643;-68
2022/08/14 08:59:27;;;;;;;14.05;8.77;;;22.90;99.90;;;;;;5053454;28;20032;-69
2022/08/14 09:01:59;;;;;;;15.45;8.27;;;23.00;99.90;;;;;;5053467;28;20520;-69
2022/08/14 09:04:27;;;;;;;12.88;8.55;;;23.00;99.90;;;;;;5053348;28;20556;-69
2022/08/14 09:06:53;;;;;;;13.85;7.95;;;23.10;99.90;;;;;;5053232;28;20158;-69
2022/08/14 09:09:30;;;;;;;13.48;7.20;;;23.30;99.90;;;;;;5053006;28;20029;-69
2022/08/14 09:11:57;;;;;;;12.30;6.90;;;23.40;99.90;;;;;;5053246;28;20027;-69
2022/08/14 09:14:31;;;;;;;12.93;7.15;;;23.40;99.90;;;;;;5052865;28;20040;-69
2022/08/14 09:16:58;;;;;;;;;;;23.50;99.90;;;;;;5053122;28;20028;-69
2022/08/14 09:19:24;;;;;;;10.85;6.38;;;23.50;99.90;;;;;;5053163;28;19921;-69
2022/08/14 09:21:52;;;;;;;11.07;5.90;;;23.50;99.90;;;;;;5053177;28;20548;-68
2022/08/14 09:24:18;;;;;;;9.75;5.18;;;23.70;99.90;;;;;;5052674;28;20542;-69
2022/08/14 09:26:44;;;;;;;11.80;5.35;;;23.90;99.90;;;;;;5052974;28;20502;-69
2022/08/14 09:29:11;;;;;;;10.70;5.20;;;24.00;99.90;;;;;;5052991;28;20099;-68
2022/08/14 09:31:41;;;;;;;15.52;6.28;;;24.10;99.90;;;;;;5052854;28;20029;-69
2022/08/14 09:34:19;;;;;;;10.73;5.20;;;24.40;99.90;;;;;;5052968;28;20028;-69
2022/08/14 09:36:53;;;;;;;9.32;4.88;;;24.40;99.90;;;;;;5052883;28;20033;-69
2022/08/14 09:39:54;;;;;;;8.63;5.00;;;24.60;99.90;;;;;;5052396;28;20025;-69
2022/08/14 09:42:38;;;;;;;8.73;4.70;;;24.70;99.90;;;;;;5030583;28;20041;-69
2022/08/14 09:45:15;;;;;;;9.65;4.47;;;24.70;99.90;;;;;;5030548;28;20158;-69
2022/08/14 09:47:50;;;;;;;8.50;4.35;;;24.70;99.90;;;;;;5030578;28;20107;-69
2022/08/14 09:50:26;;;;;;;7.53;4.68;;;24.70;99.90;;;;;;5030644;28;20072;-70
2022/08/14 09:53:01;;;;;;;9.27;4.70;;;24.60;99.90;;;;;;5030150;28;20537;-70
2022/08/14 09:55:31;;;;;;;8.82;4.88;;;24.40;99.90;;;;;;5030551;28;20410;-69
2022/08/14 09:58:07;;;;;;;9.25;4.95;;;24.40;99.90;;;;;;5030555;28;20033;-70
2022/08/14 10:00:59;;;;;;;10.68;4.78;;;24.40;99.90;;;;;;5030416;28;20425;-69
2022/08/14 10:03:29;;;;;;;7.88;4.50;;;24.30;99.90;;;;;;5030407;28;20030;-70
2022/08/14 10:06:11;;;;;;;11.63;5.15;;;24.30;99.90;;;;;;5030428;28;20056;-69
2022/08/14 10:08:49;;;;;;;10.55;4.70;;;24.30;99.90;;;;;;5030068;28;20072;-70
2022/08/14 10:11:16;;;;;;;11.23;4.38;;;24.30;99.90;;;;;;5013876;28;20509;-69
2022/08/14 10:13:42;;;;;;;10.15;4.65;;;24.30;99.90;;;;;;5030434;28;20116;-69
2022/08/14 10:16:08;;;;;;;7.65;4.57;;;24.20;99.90;;;;;;5030351;28;20037;-69
2022/08/14 10:18:34;;;;;;;9.38;4.38;;;24.20;99.90;;;;;;5037465;28;20033;-69
2022/08/14 10:21:00;;;;;;;9.73;4.47;;;24.20;99.90;;;;;;5052099;28;20382;-69
2022/08/14 10:23:44;;;;;;;8.20;4.20;;;24.20;99.90;;;;;;5052401;28;20017;-69
2022/08/14 10:26:15;;;;;;;9.32;5.03;;;24.20;99.90;;;;;;5052683;28;20033;-69
2022/08/14 10:28:47;;;;;;;10.55;4.30;;;24.20;99.90;;;;;;5056309;28;20086;-70
2022/08/14 10:31:17;;;;;;;8.90;4.38;;;24.20;99.90;;;;;;5056418;28;20013;-70
2022/08/14 10:33:45;;;;;;;7.32;4.38;;;24.20;99.90;;;;;;5056251;28;20017;-70
2022/08/14 10:36:11;;;;;;;8.70;4.90;;;24.20;99.90;;;;;;5055966;28;20025;-69
2022/08/14 10:38:37;;;;;;;7.85;4.07;;;24.20;99.90;;;;;;5056018;28;20021;-70
2022/08/14 10:41:11;;;;;;;8.85;4.20;;;24.20;99.90;;;;;;5055873;28;20182;-69
2022/08/14 10:43:38;;;;;;;10.85;5.10;;;24.20;99.90;;;;;;5055874;28;20132;-69
2022/08/14 10:46:14;;;;;;;9.38;4.53;;;24.20;99.90;;;;;;5056110;28;20037;-70
2022/08/14 10:48:41;;;;;;;11.48;4.72;;;24.20;99.90;;;;;;5056008;28;20025;-69
2022/08/14 10:51:07;;;;;;;10.93;4.85;;;24.10;99.90;;;;;;5055578;28;20017;-69
2022/08/14 10:53:36;;;;;;;6.72;4.57;;;24.20;99.90;;;;;;5055900;28;20029;-69
2022/08/14 10:56:09;;;;;;;8.18;4.50;;;24.30;99.90;;;;;;5055791;28;20025;-69
2022/08/14 10:58:35;;;;;;;10.77;4.88;;;24.30;99.90;;;;;;5055877;28;20059;-69
2022/08/14 11:01:04;;;;;;;7.93;4.65;;;24.30;99.90;;;;;;5055784;28;20459;-70
2022/08/14 11:03:42;;;;;;;11.13;5.05;;;24.30;99.90;;;;;;5055654;28;20108;-69
2022/08/14 11:06:19;;;;;;;8.35;4.70;;;24.20;99.90;;;;;;5055427;28;20083;-69
2022/08/14 11:08:46;;;;;;;9.23;4.60;;;24.20;99.90;;;;;;5055675;28;20013;-69
2022/08/14 11:11:12;;;;;;;7.88;4.70;;;24.20;99.90;;;;;;5055502;28;20105;-69
2022/08/14 11:13:42;;;;;;;8.38;4.10;;;24.10;99.90;;;;;;5055470;28;20108;-70
2022/08/14 11:16:09;;;;;;;7.30;4.30;;;24.10;99.90;;;;;;5055437;28;20071;-69
2022/08/14 11:18:36;;;;;;;10.25;4.22;;;24.10;99.90;;;;;;5055399;28;20362;-69
2022/08/14 11:21:05;;;;;;;7.40;4.20;;;24.10;99.90;;;;;;5054858;28;20045;-69
2022/08/14 11:23:35;;;;;;;7.28;4.15;;;24.20;99.90;;;;;;5055236;28;20044;-68
2022/08/14 11:26:01;;;;;;;10.65;4.25;;;24.30;99.90;;;;;;5055341;28;20071;-69
2022/08/14 11:28:33;;;;;;;7.22;4.00;;;24.30;99.90;;;;;;5055098;28;20405;-69
2022/08/14 11:31:02;;;;;;;9.98;4.13;;;24.30;99.90;;;;;;5055122;28;20025;-69
2022/08/14 11:33:31;;;;;;;7.15;3.97;;;24.30;99.90;;;;;;5054848;28;20024;-69
2022/08/14 11:36:04;;;;;;;7.60;4.05;;;24.30;99.90;;;;;;5055188;28;20385;-70
2022/08/14 11:38:44;;;;;;;8.30;4.07;;;24.40;99.90;;;;;;5053761;28;20045;-69
2022/08/14 11:41:11;;;;;;;9.10;4.00;;;24.40;99.90;;;;;;5054995;28;20055;-69
2022/08/14 11:43:49;;;;;;;10.93;3.83;;;24.30;99.90;;;;;;5054646;28;20098;-69
2022/08/14 11:46:15;;;;;;;6.72;3.50;;;24.40;99.90;;;;;;5054911;28;20056;-69
2022/08/14 11:48:48;;;;;;;8.25;3.95;;;24.40;99.90;;;;;;5054664;28;20588;-69
2022/08/14 11:51:22;;;;;;;7.10;3.58;;;24.40;99.90;;;;;;5054836;28;20025;-69
2022/08/14 11:53:52;;;;;;;;;;;24.40;99.90;;;;;;5055166;28;20025;-69
2022/08/14 11:56:18;;;;;;;7.00;3.53;;;24.40;99.90;;;;;;5054685;28;20007;-69
2022/08/14 11:58:50;;;;;;;8.63;4.07;;;24.30;99.90;;;;;;5054761;28;20021;-70
2022/08/14 12:01:15;;;;;;;8.98;3.70;;;24.20;99.90;;;;;;5054525;28;20071;-70
2022/08/14 12:03:44;;;;;;;10.75;3.55;;;24.10;99.90;;;;;;5054131;28;20025;-71
2022/08/14 12:06:15;;;;;;;9.50;3.85;;;24.10;99.90;;;;;;5054565;28;20040;-70
2022/08/14 12:08:42;;;;;;;8.18;3.78;;;24.00;99.90;;;;;;5054527;28;20021;-70
2022/08/14 12:11:13;;;;;;;8.80;3.92;;;24.10;99.90;;;;;;5054407;28;20059;-69
2022/08/14 12:13:40;;;;;;;6.38;3.13;;;24.10;99.90;;;;;;5054370;28;20111;-69
2022/08/14 12:16:09;;;;;;;8.18;3.70;;;24.20;99.90;;;;;;5054261;28;20397;-69
2022/08/14 12:18:39;;;;;;;9.30;4.07;;;24.20;99.90;;;;;;5052670;28;20032;-69
2022/08/14 12:21:17;;;;;;;8.93;3.50;;;24.30;99.90;;;;;;5054095;28;20052;-69
2022/08/14 12:23:45;;;;;;;9.27;3.60;;;24.40;99.90;;;;;;5054188;28;20037;-69
2022/08/14 12:26:19;;;;;;;8.50;3.65;;;24.50;99.90;;;;;;5054142;28;20031;-69
2022/08/14 12:28:50;;;;;;;10.50;3.70;;;24.60;99.90;;;;;;5053968;28;20513;-68
2022/08/14 12:31:19;;;;;;;10.00;3.33;;;24.60;99.90;;;;;;5053783;28;20505;-68
2022/08/14 12:34:00;;;;;;;7.88;3.25;;;24.70;99.90;;;;;;5053894;28;20111;-68
2022/08/14 12:36:29;;;;;;;10.73;3.42;;;24.90;99.90;;;;;;5053949;28;20404;-69
2022/08/14 12:38:59;;;;;;;9.10;3.40;;;24.90;99.90;;;;;;5053763;28;20021;-69
2022/08/14 12:41:34;;;;;;;8.70;3.70;;;25.00;99.90;;;;;;5053474;28;20464;-68
2022/08/14 12:44:05;;;;;;;7.50;3.20;;;25.20;99.90;;;;;;5053799;28;20053;-68
2022/08/14 12:46:40;;;;;;;8.57;3.35;;;25.30;99.90;;;;;;5053273;28;20032;-68
2022/08/14 12:49:13;;;;;;;8.70;3.60;;;25.30;99.90;;;;;;5053356;28;20036;-68
2022/08/14 12:51:39;;;;;;;;;;;25.40;99.90;;;;;;5053865;28;20035;-68
2022/08/14 12:54:17;;;;;;;6.30;3.50;;;25.50;99.90;;;;;;5053507;28;19908;-68
2022/08/14 12:56:45;;;;;;;9.13;3.45;;;25.60;99.90;;;;;;5053643;28;20096;-68